Time;durP1;ratioP1;P1;durP2;ratioP2;P2;SDS_P1;SDS_P2;PMS_P1;PMS_P2;Temp;Humidity;BMP_temperature;BMP_pressure;BME280_temperature;BME280_humidity;BME280_pressure;Samples;Min_cycle;Max_cycle;Signal;HPM_P1;HPM_P2
2023/10/25 00:07:19;;;;;;;1.30;0.80;;;;;;;16.37;75.23;99724.28;20965809;28;20041;-71
2023/10/25 00:17:21;;;;;;;1.00;0.57;;;;;;;16.35;75.08;99731.66;20964466;28;20049;-71
2023/10/25 00:27:22;;;;;;;1.70;0.70;;;;;;;16.34;74.87;99725.44;20964050;28;20048;-71
2023/10/25 00:37:24;;;;;;;1.15;0.63;;;;;;;16.33;74.79;99728.28;20962836;28;20048;-71
2023/10/25 00:47:26;;;;;;;1.10;0.88;;;;;;;16.32;74.52;99722.06;20962283;28;20048;-71
2023/10/25 00:57:28;;;;;;;1.92;0.82;;;;;;;16.31;74.46;99730.28;20961490;28;20105;-71
2023/10/25 01:07:30;;;;;;;0.88;0.55;;;;;;;16.29;74.29;99722.38;20942543;28;20052;-71
2023/10/25 01:17:32;;;;;;;0.60;0.60;;;;;;;16.28;74.30;99714.50;20958069;28;20044;-72
2023/10/25 01:27:33;;;;;;;1.30;0.70;;;;;;;16.26;74.09;99725.38;20859141;28;20040;-71
2023/10/25 01:37:36;;;;;;;1.55;0.90;;;;;;;16.24;73.99;99722.84;20874118;28;20563;-71
2023/10/25 01:47:38;;;;;;;0.70;0.70;;;;;;;16.23;73.80;99718.47;20875695;28;20394;-72
2023/10/25 01:57:43;;;;;;;1.63;0.90;;;;;;;16.23;73.72;99717.63;20857313;28;20124;-72
2023/10/25 02:07:45;;;;;;;0.80;0.60;;;;;;;16.23;73.60;99717.63;20894435;28;20048;-71
2023/10/25 02:17:47;;;;;;;1.10;0.75;;;;;;;16.17;73.56;99710.19;20873291;28;20044;-71
2023/10/25 02:27:49;;;;;;;2.42;0.98;;;;;;;16.15;73.67;99706.81;20890813;28;20055;-71
2023/10/25 02:37:51;;;;;;;1.60;1.00;;;;;;;16.16;73.51;99703.13;20904744;28;20134;-72
2023/10/25 02:47:54;;;;;;;1.15;0.95;;;;;;;16.18;73.38;99693.09;20889213;28;20049;-71
2023/10/25 02:57:56;;;;;;;1.70;1.00;;;;;;;16.18;73.47;99691.25;20888480;28;20040;-72
2023/10/25 03:07:59;;;;;;;1.80;0.95;;;;;;;16.13;73.12;99673.91;20888002;28;20214;-72
2023/10/25 03:18:02;;;;;;;1.95;1.05;;;;;;;16.16;73.26;99669.09;20901261;28;20413;-72
2023/10/25 03:28:04;;;;;;;2.03;0.80;;;;;;;16.22;73.20;99659.53;20885686;28;20059;-71
2023/10/25 03:38:06;;;;;;;1.35;0.85;;;;;;;16.24;73.08;99647.66;20884870;28;20142;-71
2023/10/25 03:48:08;;;;;;;1.30;0.80;;;;;;;16.28;72.94;99645.50;20899802;28;20468;-72
2023/10/25 03:58:10;;;;;;;2.92;1.27;;;;;;;16.34;72.71;99652.91;20883581;28;20049;-71
2023/10/25 04:08:12;;;;;;;1.05;0.80;;;;;;;16.38;72.62;99648.94;20883325;28;20055;-72
2023/10/25 04:18:13;;;;;;;1.25;0.73;;;;;;;16.42;72.33;99637.88;20880652;28;20065;-72
2023/10/25 04:28:16;;;;;;;2.78;1.10;;;;;;;16.40;72.32;99640.72;20880640;28;20060;-72
2023/10/25 04:38:18;;;;;;;1.75;1.00;;;;;;;16.43;72.23;99626.13;20880096;28;20103;-71
2023/10/25 04:48:20;;;;;;;1.50;0.65;;;;;;;16.48;71.86;99624.66;20880028;28;20053;-72
2023/10/25 04:58:24;;;;;;;1.35;1.10;;;;;;;16.55;71.56;99629.38;20879294;28;20174;-71
2023/10/25 05:08:26;;;;;;;1.98;0.93;;;;;;;16.56;71.41;99615.81;20878130;28;20040;-72
2023/10/25 05:18:28;;;;;;;1.73;0.80;;;;;;;16.46;71.22;99583.66;20875856;28;20466;-71
2023/10/25 05:28:31;;;;;;;2.00;1.20;;;;;;;16.55;71.12;99599.81;20876576;28;20690;-71
2023/10/25 05:38:33;;;;;;;2.20;1.40;;;;;;;16.53;71.02;99597.31;20875705;28;20049;-74
2023/10/25 05:48:35;;;;;;;3.42;1.45;;;;;;;16.51;71.09;99602.84;20873933;28;20056;-74
2023/10/25 05:58:37;;;;;;;1.73;0.90;;;;;;;16.51;70.84;99593.94;20873879;28;20053;-72
2023/10/25 06:08:39;;;;;;;1.05;0.77;;;;;;;16.49;70.85;99604.00;20873046;28;20045;-71
2023/10/25 06:18:41;;;;;;;1.00;0.80;;;;;;;16.47;70.96;99622.13;20872707;28;20061;-71
2023/10/25 06:28:43;;;;;;;1.90;0.90;;;;;;;16.46;70.96;99623.13;20874088;28;20057;-69
2023/10/25 06:38:45;;;;;;;1.23;0.90;;;;;;;16.46;70.70;99620.44;20873549;28;20049;-72
2023/10/25 06:48:47;;;;;;;1.23;0.70;;;;;;;16.44;70.75;99603.66;20873460;28;20053;-71
2023/10/25 06:58:49;;;;;;;1.52;0.80;;;;;;;16.47;70.61;99616.75;20885002;28;20048;-71
2023/10/25 07:08:55;;;;;;;1.02;0.70;;;;;;;16.51;70.47;99607.38;20886436;28;20049;-71
2023/10/25 07:18:56;;;;;;;1.10;0.80;;;;;;;16.51;70.63;99608.22;20885277;28;20045;-72
2023/10/25 07:28:58;;;;;;;1.58;0.80;;;;;;;16.53;70.43;99591.94;20886008;28;20409;-71
2023/10/25 07:39:00;;;;;;;2.45;1.00;;;;;;;16.56;70.43;99585.38;20884891;28;20053;-72
2023/10/25 07:49:02;;;;;;;3.03;1.02;;;;;;;16.60;70.35;99587.59;20884673;28;20056;-71
2023/10/25 07:59:04;;;;;;;1.85;1.00;;;;;;;16.66;70.16;99576.22;20884050;28;20148;-71
2023/10/25 08:09:05;;;;;;;2.17;0.70;;;;;;;16.67;70.04;99569.84;20881754;28;20045;-71
2023/10/25 08:19:08;;;;;;;1.75;0.95;;;;;;;16.63;70.35;99551.53;20882524;28;20102;-71
2023/10/25 08:29:10;;;;;;;1.95;1.10;;;;;;;16.58;70.40;99549.31;20881404;28;20048;-72
2023/10/25 08:39:12;;;;;;;1.95;0.90;;;;;;;16.56;70.66;99551.31;20878562;28;20055;-71
2023/10/25 08:49:14;;;;;;;2.22;1.20;;;;;;;16.57;70.81;99544.94;20878238;28;20057;-71
2023/10/25 08:59:16;;;;;;;2.33;1.30;;;;;;;16.59;70.88;99534.88;20877407;28;20052;-71
2023/10/25 09:09:18;;;;;;;1.33;0.88;;;;;;;16.65;70.93;99528.03;20876493;28;20052;-71
2023/10/25 09:19:23;;;;;;;2.45;1.08;;;;;;;16.73;71.06;99519.13;20877393;28;20563;-71
2023/10/25 09:29:26;;;;;;;2.42;1.00;;;;;;;16.95;70.83;99515.00;20876710;28;20053;-72
2023/10/25 09:39:41;;;;;;;0.98;0.80;;;;;;;17.30;69.96;99512.28;20957850;28;20139;-71
2023/10/25 09:49:45;;;;;;;1.92;1.17;;;;;;;17.59;69.45;99497.47;20958263;28;20044;-72
2023/10/25 09:59:47;;;;;;;1.65;0.90;;;;;;;17.80;68.78;99478.09;20956449;28;20052;-71
2023/10/25 10:10:01;;;;;;;1.00;0.80;;;;;;;17.95;68.39;99481.78;20957453;28;20135;-71
2023/10/25 10:20:05;;;;;;;1.40;0.70;;;;;;;18.02;68.16;99468.50;20874890;28;20049;-71
2023/10/25 10:30:30;;;;;;;1.17;0.80;;;;;;;18.01;68.17;99456.06;20961941;28;20044;-71
2023/10/25 10:40:31;;;;;;;1.30;1.00;;;;;;;17.90;68.58;99445.63;20972471;28;20052;-71
2023/10/25 10:50:33;;;;;;;1.23;0.77;;;;;;;17.75;68.91;99430.19;20970666;28;20106;-72
2023/10/25 11:00:35;;;;;;;1.33;0.70;;;;;;;17.82;68.92;99430.31;20970715;28;20201;-73
2023/10/25 11:10:38;;;;;;;1.23;0.70;;;;;;;17.80;69.00;99419.75;20968516;28;20501;-73
2023/10/25 11:20:40;;;;;;;1.20;0.90;;;;;;;17.73;69.25;99413.38;20967944;28;20044;-72
2023/10/25 11:30:42;;;;;;;0.90;0.70;;;;;;;17.67;69.62;99401.44;20968567;28;20048;-72
2023/10/25 11:40:48;;;;;;;1.67;0.70;;;;;;;17.61;69.74;99385.97;20967556;28;20056;-73
2023/10/25 11:50:50;;;;;;;2.05;0.93;;;;;;;17.56;70.12;99368.66;20883080;28;20114;-72
2023/10/25 12:00:51;;;;;;;1.75;0.98;;;;;;;17.50;70.22;99364.81;20882183;28;20053;-73
2023/10/25 12:10:53;;;;;;;1.65;1.05;;;;;;;17.43;70.42;99348.50;20883223;28;20041;-73
2023/10/25 12:20:55;;;;;;;2.65;0.80;;;;;;;17.42;70.73;99341.44;20882468;28;20511;-72
2023/10/25 12:30:57;;;;;;;2.08;0.90;;;;;;;17.39;71.07;99322.94;20881569;28;20064;-73
2023/10/25 12:41:00;;;;;;;0.70;0.60;;;;;;;17.36;71.34;99305.28;20878454;28;20049;-72
2023/10/25 12:51:02;;;;;;;1.77;0.70;;;;;;;17.37;71.69;99306.16;20879732;28;20061;-73
2023/10/25 13:01:03;;;;;;;1.00;0.80;;;;;;;17.35;71.49;99294.72;20960374;28;20488;-72
2023/10/25 13:11:05;;;;;;;0.63;0.60;;;;;;;17.36;71.95;99269.50;20961139;28;20508;-72
2023/10/25 13:21:07;;;;;;;0.80;0.70;;;;;;;17.36;72.05;99272.19;20960110;28;20052;-72
2023/10/25 13:31:09;;;;;;;1.25;0.70;;;;;;;17.28;72.51;99266.84;20959301;28;20534;-72
2023/10/25 13:41:11;;;;;;;2.00;0.82;;;;;;;17.15;73.27;99244.00;20958402;28;20044;-73
2023/10/25 13:51:13;;;;;;;0.73;0.70;;;;;;;17.13;73.61;99243.31;20958395;28;20054;-72
2023/10/25 14:01:14;;;;;;;1.85;0.75;;;;;;;17.12;74.02;99238.13;20957050;28;20060;-72
2023/10/25 14:11:16;;;;;;;0.98;0.63;;;;;;;17.10;74.23;99225.69;20957683;28;20044;-72
2023/10/25 14:21:18;;;;;;;1.13;0.70;;;;;;;17.10;74.45;99224.84;20955736;28;20040;-72
2023/10/25 14:31:20;;;;;;;1.48;0.63;;;;;;;17.09;74.59;99215.97;20956739;28;20052;-72
2023/10/25 14:41:22;;;;;;;1.00;0.60;;;;;;;17.08;74.88;99210.75;20956010;28;20052;-72
2023/10/25 14:51:27;;;;;;;1.58;0.50;;;;;;;17.08;74.70;99205.38;20954361;28;20106;-72
2023/10/25 15:01:28;;;;;;;1.50;0.90;;;;;;;17.09;74.82;99196.28;20953830;28;20053;-72
2023/10/25 15:11:30;;;;;;;1.30;0.73;;;;;;;17.10;74.66;99208.72;20954214;28;20063;-72
2023/10/25 15:21:32;;;;;;;2.80;0.98;;;;;;;17.10;74.51;99197.97;20968525;28;20054;-72
2023/10/25 15:31:34;;;;;;;2.00;0.80;;;;;;;17.11;74.00;99196.94;20968923;28;20527;-72
2023/10/25 15:41:35;;;;;;;0.70;0.70;;;;;;;17.09;74.29;99188.22;20967728;28;20044;-72
2023/10/25 15:51:38;;;;;;;1.40;0.80;;;;;;;17.07;74.22;99174.13;20967093;28;20114;-72
2023/10/25 16:01:40;;;;;;;1.75;0.80;;;;;;;17.07;74.29;99169.59;20964901;28;20626;-72
2023/10/25 16:11:58;;;;;;;1.35;0.90;;;;;;;17.05;74.14;99168.06;20966324;28;20040;-72
2023/10/25 16:21:59;;;;;;;1.48;0.70;;;;;;;17.05;74.11;99163.53;20965092;28;20044;-72
2023/10/25 16:32:01;;;;;;;2.20;1.00;;;;;;;17.03;74.11;99159.34;20962743;28;20052;-72
2023/10/25 16:42:03;;;;;;;1.63;0.90;;;;;;;17.00;74.29;99163.19;20962744;28;20420;-72
2023/10/25 16:52:05;;;;;;;1.05;0.80;;;;;;;16.99;74.13;99152.63;20962671;28;20056;-72
2023/10/25 17:02:07;;;;;;;1.23;0.80;;;;;;;16.98;74.19;99153.66;20961503;28;20500;-73
2023/10/25 17:12:09;;;;;;;1.30;0.70;;;;;;;16.95;74.17;99150.25;20961188;28;20127;-73
2023/10/25 17:22:11;;;;;;;0.90;0.80;;;;;;;16.93;74.28;99152.28;20960538;28;20144;-72
2023/10/25 17:32:13;;;;;;;1.60;1.10;;;;;;;16.95;74.32;99152.09;20959355;28;20420;-72
2023/10/25 17:42:15;;;;;;;0.98;0.68;;;;;;;16.91;74.33;99151.63;20957966;28;20052;-72
2023/10/25 17:52:17;;;;;;;1.60;0.93;;;;;;;16.90;74.35;99147.25;20958472;28;20071;-72
2023/10/25 18:02:21;;;;;;;0.90;0.70;;;;;;;16.88;74.48;99154.66;20958041;28;20554;-72
2023/10/25 18:12:23;;;;;;;1.58;0.90;;;;;;;16.89;74.38;99158.16;20957515;28;20053;-72
2023/10/25 18:22:25;;;;;;;1.00;0.70;;;;;;;16.90;74.32;99158.00;20957457;28;20051;-72
2023/10/25 18:32:27;;;;;;;0.80;0.70;;;;;;;16.89;74.45;99156.34;20956848;28;20044;-72
2023/10/25 18:42:31;;;;;;;1.27;0.90;;;;;;;16.86;74.44;99154.00;20955850;28;20592;-72
2023/10/25 18:52:33;;;;;;;1.17;0.82;;;;;;;16.80;74.85;99160.06;20962980;28;20048;-72
2023/10/25 19:02:35;;;;;;;1.38;1.02;;;;;;;16.62;75.33;99146.81;20971322;28;20462;-72
2023/10/25 19:12:37;;;;;;;1.58;0.98;;;;;;;16.67;75.38;99155.22;20970502;28;20567;-72
2023/10/25 19:22:39;;;;;;;1.08;0.80;;;;;;;16.65;75.47;99147.31;20969869;28;20051;-72
2023/10/25 19:32:41;;;;;;;1.13;0.90;;;;;;;16.63;75.59;99159.25;20969069;28;20052;-72
2023/10/25 19:42:44;;;;;;;1.20;1.10;;;;;;;16.53;75.79;99143.31;20967600;28;20054;-72
2023/10/25 19:52:46;;;;;;;1.73;1.25;;;;;;;16.61;75.80;99159.41;20967561;28;20052;-72
2023/10/25 20:02:50;;;;;;;1.33;1.20;;;;;;;16.60;75.85;99156.91;20966647;28;20075;-72
2023/10/25 20:12:52;;;;;;;1.85;1.23;;;;;;;16.58;75.94;99172.34;20965737;28;20049;-72
2023/10/25 20:22:59;;;;;;;1.30;1.20;;;;;;;16.61;75.90;99172.03;20965064;28;20098;-72
2023/10/25 20:33:01;;;;;;;1.30;1.00;;;;;;;16.68;75.58;99163.09;20963788;28;20052;-72
2023/10/25 20:43:02;;;;;;;1.67;1.10;;;;;;;16.68;75.62;99159.56;20962431;28;20119;-72
2023/10/25 20:53:04;;;;;;;1.95;1.10;;;;;;;16.68;75.58;99168.47;20961161;28;20056;-73
2023/10/25 21:03:07;;;;;;;1.40;1.08;;;;;;;16.65;75.60;99165.28;20961870;28;20122;-72
2023/10/25 21:13:08;;;;;;;1.23;1.00;;;;;;;16.67;75.76;99180.22;20960750;28;20052;-72
2023/10/25 21:23:10;;;;;;;1.20;1.10;;;;;;;16.66;76.07;99173.16;20960028;28;20052;-72
2023/10/25 21:33:12;;;;;;;1.30;1.00;;;;;;;16.66;75.67;99186.59;20957711;28;20052;-72
2023/10/25 21:43:14;;;;;;;1.33;1.00;;;;;;;16.66;75.82;99189.28;20958836;28;20060;-73
2023/10/25 21:53:16;;;;;;;2.28;1.30;;;;;;;16.64;75.86;99188.63;20958435;28;20054;-72
2023/10/25 22:03:19;;;;;;;1.10;1.00;;;;;;;16.62;75.97;99179.88;20958060;28;20415;-72
2023/10/25 22:13:21;;;;;;;1.30;1.20;;;;;;;16.65;75.99;99173.34;20957888;28;20055;-72
2023/10/25 22:23:23;;;;;;;1.40;1.10;;;;;;;16.64;75.97;99172.50;20959394;28;20049;-72
2023/10/25 22:33:25;;;;;;;1.77;1.27;;;;;;;16.63;75.99;99178.06;20973192;28;20049;-72
2023/10/25 22:43:27;;;;;;;1.85;1.08;;;;;;;16.65;75.96;99189.47;20972053;28;20052;-72
2023/10/25 22:53:28;;;;;;;1.45;1.00;;;;;;;16.58;75.80;99173.19;20972272;28;20052;-72
2023/10/25 23:03:30;;;;;;;1.55;1.20;;;;;;;16.67;75.81;99188.28;20971265;28;20056;-71
2023/10/25 23:13:32;;;;;;;1.55;0.93;;;;;;;16.56;75.85;99177.03;20970466;28;20087;-70
2023/10/25 23:23:34;;;;;;;1.20;1.00;;;;;;;16.67;76.01;99200.88;20970176;28;20055;-72
2023/10/25 23:33:37;;;;;;;1.23;1.00;;;;;;;16.68;75.83;99208.75;20965148;28;20422;-72
2023/10/25 23:43:39;;;;;;;0.70;0.70;;;;;;;16.67;75.73;99199.03;20961558;28;20047;-72
2023/10/25 23:53:41;;;;;;;1.20;1.00;;;;;;;16.67;75.88;99199.03;20963039;28;20044;-72
